createdAt,value
2022-09-14T00:02:57.457Z,66.31
2022-09-14T00:07:58.746Z,66.07
2022-09-14T00:12:59.845Z,65.18
2022-09-14T00:18:01.025Z,65.52
2022-09-14T00:23:03.137Z,65.95
2022-09-14T00:28:04.282Z,65.83
2022-09-14T00:33:05.457Z,65.91
2022-09-14T00:38:09.075Z,66.04
2022-09-14T00:43:15.344Z,65.77
2022-09-14T00:48:16.792Z,65.89
2022-09-14T00:53:18.033Z,65.14
2022-09-14T00:58:19.887Z,65.30
2022-09-14T01:03:22.245Z,65.53
2022-09-14T01:08:30.169Z,65.34
2022-09-14T01:14:09.174Z,65.30
2022-09-14T01:19:32.874Z,65.72
2022-09-14T01:24:47.259Z,65.66
2022-09-14T01:30:02.729Z,65.48
2022-09-14T01:35:14.106Z,65.30
2022-09-14T01:40:41.744Z,65.54
2022-09-14T01:45:52.137Z,64.94
2022-09-14T01:50:57.712Z,65.31
2022-09-14T01:56:14.447Z,66.46
2022-09-14T02:01:29.599Z,66.62
2022-09-14T02:06:43.731Z,66.60
2022-09-14T02:11:46.126Z,65.95
2022-09-14T02:16:47.607Z,66.24
2022-09-14T02:21:49.436Z,66.11
2022-09-14T02:26:53.088Z,66.68
2022-09-14T02:32:09.908Z,66.59
2022-09-14T02:37:18.603Z,67.85
2022-09-14T02:42:34.095Z,66.34
2022-09-14T02:48:04.587Z,64.25
2022-09-14T02:53:43.378Z,64.39
2022-09-14T02:58:45.264Z,64.30
2022-09-14T03:03:46.733Z,64.10
2022-09-14T03:08:48.870Z,63.93
2022-09-14T03:13:50.004Z,64.29
2022-09-14T03:18:51.323Z,63.80
2022-09-14T03:23:54.756Z,64.05
2022-09-14T03:28:58.314Z,63.19
2022-09-14T03:34:00.815Z,63.51
2022-09-14T03:39:02.821Z,64.49
2022-09-14T03:44:04.105Z,63.71
2022-09-14T03:49:05.274Z,64.89
2022-09-14T03:54:06.356Z,64.95
2022-09-14T03:59:08.890Z,64.92
2022-09-14T04:04:10.075Z,63.59
2022-09-14T04:09:11.779Z,64.17
2022-09-14T04:14:13.756Z,64.79
2022-09-14T04:19:15.328Z,65.86
2022-09-14T04:24:17.779Z,65.64
2022-09-14T04:29:19.263Z,66.31
2022-09-14T04:34:21.420Z,66.48
2022-09-14T04:39:23.373Z,66.46
2022-09-14T04:44:24.604Z,67.74
2022-09-14T04:49:25.717Z,67.60
2022-09-14T04:54:27.298Z,67.41
2022-09-14T04:59:28.515Z,67.99
2022-09-14T05:04:29.646Z,67.23
2022-09-14T05:09:30.788Z,66.58
2022-09-14T05:14:31.881Z,66.32
2022-09-14T05:19:33.116Z,65.78
2022-09-14T05:24:34.318Z,65.30
2022-09-14T05:29:35.690Z,65.17
2022-09-14T05:34:36.868Z,64.62
2022-09-14T05:39:38.152Z,64.37
2022-09-14T05:44:39.322Z,63.74
2022-09-14T05:49:40.474Z,63.65
2022-09-14T05:54:42.704Z,63.30
2022-09-14T05:59:43.971Z,63.13
2022-09-14T06:04:45.797Z,62.94
2022-09-14T06:09:46.980Z,63.99
2022-09-14T06:14:48.166Z,63.51
2022-09-14T06:19:49.363Z,64.41
2022-09-14T06:24:50.519Z,64.90
2022-09-14T06:29:53.901Z,62.62
2022-09-14T06:34:55.043Z,58.53
2022-09-14T06:39:57.421Z,58.83
2022-09-14T06:44:58.710Z,62.41
2022-09-14T06:49:59.895Z,60.50
2022-09-14T06:55:01.403Z,61.00
2022-09-14T07:00:04.863Z,56.58
2022-09-14T07:05:06.354Z,58.99
2022-09-14T07:10:07.834Z,58.11
2022-09-14T07:15:09.180Z,56.00
2022-09-14T07:20:10.645Z,61.90
2022-09-14T07:25:11.805Z,57.11
2022-09-14T07:30:13.002Z,57.54
2022-09-14T07:35:14.213Z,57.98
2022-09-14T07:40:17.665Z,58.13
2022-09-14T07:45:20.135Z,59.87
2022-09-14T07:50:21.278Z,61.11
2022-09-14T07:55:22.605Z,61.81
2022-09-14T08:00:24.867Z,55.14
2022-09-14T08:05:26.128Z,55.03
2022-09-14T08:10:27.276Z,56.65
2022-09-14T08:15:28.817Z,56.72
2022-09-14T08:20:30.034Z,56.75
2022-09-14T08:25:31.179Z,57.93
2022-09-14T08:30:33.291Z,58.82
2022-09-14T08:35:57.403Z,59.44
2022-09-14T08:41:09.001Z,58.03
2022-09-14T08:46:35.505Z,59.85
2022-09-14T08:51:36.805Z,58.37
2022-09-14T08:56:44.001Z,58.12
2022-09-14T09:02:04.017Z,58.84
2022-09-14T09:07:23.878Z,58.69
2022-09-14T09:12:29.115Z,59.38
2022-09-14T09:17:35.782Z,58.50
2022-09-14T09:23:02.293Z,58.30
2022-09-14T09:28:12.564Z,58.21
2022-09-14T09:33:20.896Z,57.51
2022-09-14T09:38:25.148Z,57.02
2022-09-14T09:43:47.890Z,56.40
2022-09-14T09:48:48.743Z,57.04
2022-09-14T09:53:55.233Z,55.23
2022-09-14T09:58:56.841Z,54.67
2022-09-14T10:04:09.464Z,53.95
2022-09-14T10:09:20.929Z,53.88
2022-09-14T10:14:22.463Z,53.98
2022-09-14T10:19:28.401Z,55.09
2022-09-14T10:24:33.643Z,54.92
2022-09-14T10:29:41.741Z,52.90
2022-09-14T10:34:42.989Z,53.61
2022-09-14T10:39:55.992Z,53.51
2022-09-14T10:45:18.224Z,53.40
2022-09-14T10:50:46.522Z,54.06
2022-09-14T10:55:50.647Z,53.04
2022-09-14T11:01:07.986Z,53.16
2022-09-14T11:06:39.037Z,54.30
2022-09-14T11:12:06.126Z,54.76
2022-09-14T11:17:15.657Z,55.49
2022-09-14T11:22:26.025Z,55.97
2022-09-14T11:27:57.657Z,56.91
2022-09-14T11:33:18.234Z,57.24
2022-09-14T11:38:24.108Z,58.16
2022-09-14T11:43:33.246Z,58.43
2022-09-14T11:48:55.353Z,58.16
2022-09-14T11:53:56.986Z,58.03
2022-09-14T11:59:05.740Z,58.00
2022-09-14T12:04:13.213Z,57.65
2022-09-14T12:09:20.110Z,55.74
2022-09-14T12:14:26.233Z,56.25
2022-09-14T12:19:27.629Z,55.37
2022-09-14T12:24:30.576Z,54.74
2022-09-14T12:29:33.331Z,54.96
2022-09-14T12:34:34.993Z,55.38
2022-09-14T12:39:37.172Z,54.80
2022-09-14T12:44:42.630Z,54.43
2022-09-14T12:49:44.240Z,53.95
2022-09-14T12:55:04.739Z,54.79
2022-09-14T13:00:12.420Z,54.53
2022-09-14T13:05:16.878Z,53.53
2022-09-14T13:10:23.910Z,53.94
2022-09-14T13:15:26.596Z,53.51
2022-09-14T13:20:30.084Z,52.73
2022-09-14T13:25:37.197Z,52.95
2022-09-14T13:30:41.027Z,53.92
2022-09-14T13:35:47.165Z,53.88
2022-09-14T13:40:51.196Z,53.23
2022-09-14T13:45:52.597Z,53.34
2022-09-14T13:50:56.237Z,53.94
2022-09-14T13:55:57.443Z,53.69
2022-09-14T14:01:04.119Z,54.05
2022-09-14T14:06:29.037Z,54.20
2022-09-14T14:11:41.825Z,54.17
2022-09-14T14:17:21.335Z,53.52
2022-09-14T14:22:30.944Z,53.81
2022-09-14T14:27:46.692Z,54.19
2022-09-14T14:32:53.954Z,54.63
2022-09-14T14:37:59.607Z,55.23
2022-09-14T14:43:06.195Z,55.59
2022-09-14T14:48:10.231Z,56.06
2022-09-14T14:53:11.518Z,56.46
2022-09-14T14:58:19.021Z,56.87
2022-09-14T15:03:20.768Z,57.40
2022-09-14T15:08:22.115Z,57.57
2022-09-14T15:13:23.343Z,57.84
2022-09-14T15:18:24.599Z,58.08
2022-09-14T15:23:26.873Z,58.21
2022-09-14T15:28:30.911Z,58.46
2022-09-14T15:33:35.683Z,58.36
2022-09-14T15:38:37.156Z,58.37
2022-09-14T15:43:38.262Z,58.66
2022-09-14T15:48:39.463Z,58.65
2022-09-14T15:53:41.468Z,58.82
2022-09-14T15:58:47.819Z,59.20
2022-09-14T16:04:07.313Z,59.31
2022-09-14T16:09:14.282Z,59.39
2022-09-14T16:14:15.683Z,59.88
2022-09-14T16:19:17.147Z,59.74
2022-09-14T16:24:20.644Z,59.91
2022-09-14T16:29:24.782Z,60.21
2022-09-14T16:34:29.178Z,60.64
2022-09-14T16:39:30.992Z,61.09
2022-09-14T16:44:32.241Z,61.08
2022-09-14T16:49:33.509Z,61.39
2022-09-14T16:54:34.730Z,61.17
2022-09-14T16:59:38.146Z,68.31
2022-09-14T17:04:39.460Z,66.03
2022-09-14T17:09:40.684Z,60.83
2022-09-14T17:14:42.045Z,55.26
2022-09-14T17:19:47.130Z,55.07
2022-09-14T17:24:49.973Z,56.43
2022-09-14T17:29:52.430Z,57.37
2022-09-14T17:34:54.600Z,58.44
2022-09-14T17:39:55.840Z,59.54
2022-09-14T17:44:58.428Z,60.12
2022-09-14T17:50:01.797Z,60.86
2022-09-14T17:55:07.919Z,61.33
2022-09-14T18:00:11.951Z,67.13
2022-09-14T18:05:13.135Z,66.49
2022-09-14T18:10:19.410Z,62.03
2022-09-14T18:15:21.598Z,57.23
2022-09-14T18:20:26.170Z,56.21
2022-09-14T18:25:28.897Z,57.49
2022-09-14T18:30:30.190Z,58.92
2022-09-14T18:35:33.642Z,59.80
2022-09-14T18:40:36.565Z,61.06
2022-09-14T18:45:37.799Z,66.94
2022-09-14T18:50:41.594Z,65.58
2022-09-14T18:55:42.917Z,61.93
2022-09-14T19:00:44.295Z,57.54
2022-09-14T19:05:46.668Z,57.09
2022-09-14T19:10:47.987Z,57.83
2022-09-14T19:15:49.243Z,59.65
2022-09-14T19:21:05.755Z,60.70
2022-09-14T19:26:11.889Z,67.56
2022-09-14T19:31:16.186Z,64.83
2022-09-14T19:36:20.346Z,62.27
2022-09-14T19:41:22.586Z,61.00
2022-09-14T19:46:24.331Z,57.16
2022-09-14T19:51:28.172Z,57.26
2022-09-14T19:56:31.407Z,57.99
2022-09-14T20:01:34.589Z,60.11
2022-09-14T20:06:41.916Z,66.78
2022-09-14T20:11:47.453Z,64.94
2022-09-14T20:16:54.890Z,61.06
2022-09-14T20:21:56.823Z,56.04
2022-09-14T20:26:59.790Z,56.37
2022-09-14T20:32:03.370Z,57.76
2022-09-14T20:37:04.604Z,58.80
2022-09-14T20:42:06.108Z,60.35
2022-09-14T20:47:07.286Z,67.08
2022-09-14T20:52:08.885Z,65.92
2022-09-14T20:57:10.106Z,62.10
2022-09-14T21:02:11.435Z,57.32
2022-09-14T21:07:12.731Z,56.56
2022-09-14T21:12:14.569Z,58.48
2022-09-14T21:17:16.906Z,59.79
2022-09-14T21:22:18.091Z,65.69
2022-09-14T21:27:19.962Z,65.86
2022-09-14T21:32:21.179Z,62.08
2022-09-14T21:37:25.844Z,60.07
2022-09-14T21:42:28.761Z,56.01
2022-09-14T21:47:30.385Z,56.90
2022-09-14T21:52:31.688Z,58.33
2022-09-14T21:57:33.062Z,59.67
2022-09-14T22:02:34.660Z,66.71
2022-09-14T22:07:35.909Z,64.98
2022-09-14T22:12:38.833Z,62.81
2022-09-14T22:17:41.113Z,60.96
2022-09-14T22:22:43.370Z,57.11
2022-09-14T22:27:44.502Z,57.19
2022-09-14T22:32:45.690Z,58.61
2022-09-14T22:37:48.116Z,60.64
2022-09-14T22:42:49.229Z,67.42
2022-09-14T22:47:50.428Z,66.14
2022-09-14T22:52:51.557Z,63.79
2022-09-14T22:57:52.712Z,61.61
2022-09-14T23:02:54.259Z,60.40
2022-09-14T23:07:56.823Z,56.96
2022-09-14T23:12:58.425Z,57.18
2022-09-14T23:18:00.080Z,59.23
2022-09-14T23:23:01.206Z,65.68
2022-09-14T23:28:04.729Z,64.82
2022-09-14T23:33:05.957Z,62.27
2022-09-14T23:38:07.136Z,60.87
2022-09-14T23:43:08.294Z,57.57
2022-09-14T23:48:09.410Z,58.54
2022-09-14T23:53:10.980Z,59.33
2022-09-14T23:58:12.349Z,65.76
